createdAt,value
2019-04-03T00:02:59.269Z,42.81
2019-04-03T00:07:03.867Z,42.80
2019-04-03T00:11:10.959Z,42.80
2019-04-03T00:15:15.613Z,42.98
2019-04-03T00:19:19.829Z,42.93
2019-04-03T00:23:24.106Z,43.01
2019-04-03T00:27:28.318Z,43.16
2019-04-03T00:31:32.506Z,43.25
2019-04-03T00:35:37.081Z,43.33
2019-04-03T00:39:41.259Z,43.41
2019-04-03T00:43:45.482Z,43.53
2019-04-03T00:47:49.690Z,43.51
2019-04-03T00:51:53.872Z,43.55
2019-04-03T00:55:58.138Z,43.52
2019-04-03T01:00:02.391Z,43.55
2019-04-03T01:04:06.589Z,43.69
2019-04-03T01:08:10.816Z,43.85
2019-04-03T01:12:15.025Z,44.00
2019-04-03T01:16:19.310Z,44.14
2019-04-03T01:20:23.490Z,44.25
2019-04-03T01:24:27.721Z,44.48
2019-04-03T01:28:31.918Z,44.45
2019-04-03T01:32:36.121Z,44.38
2019-04-03T01:36:40.335Z,44.32
2019-04-03T01:40:44.551Z,44.25
2019-04-03T01:44:48.776Z,44.32
2019-04-03T01:48:52.966Z,44.99
2019-04-03T01:52:57.193Z,45.62
2019-04-03T01:57:01.666Z,45.48
2019-04-03T02:01:06.303Z,46.25
2019-04-03T02:05:12.733Z,46.39
2019-04-03T02:09:17.597Z,46.74
2019-04-03T02:13:22.035Z,46.99
2019-04-03T02:17:26.669Z,46.90
2019-04-03T02:21:31.387Z,47.20
2019-04-03T02:25:35.922Z,47.20
2019-04-03T02:29:40.420Z,47.21
2019-04-03T02:33:44.689Z,47.08
2019-04-03T02:37:50.524Z,47.17
2019-04-03T02:41:54.814Z,47.07
2019-04-03T02:45:59.229Z,47.16
2019-04-03T02:50:03.712Z,47.53
2019-04-03T02:54:17.450Z,47.56
2019-04-03T02:58:22.849Z,47.25
2019-04-03T03:02:27.715Z,47.24
2019-04-03T03:06:33.038Z,47.69
2019-04-03T03:10:38.433Z,47.49
2019-04-03T03:14:42.720Z,47.43
2019-04-03T03:18:47.530Z,47.52
2019-04-03T03:22:54.192Z,47.45
2019-04-03T03:26:59.243Z,47.39
2019-04-03T03:31:05.936Z,47.45
2019-04-03T03:35:15.029Z,47.46
2019-04-03T03:39:16.160Z,47.61
2019-04-03T03:43:21.398Z,47.95
2019-04-03T03:47:25.995Z,48.53
2019-04-03T03:51:32.968Z,48.26
2019-04-03T03:55:38.193Z,48.30
2019-04-03T03:59:43.871Z,48.49
2019-04-03T04:03:48.085Z,49.04
2019-04-03T04:07:52.360Z,48.58
2019-04-03T04:11:57.802Z,48.56
2019-04-03T04:16:04.619Z,48.69
2019-04-03T04:20:09.530Z,48.80
2019-04-03T04:24:20.692Z,48.76
2019-04-03T04:28:25.105Z,48.97
2019-04-03T04:32:29.431Z,48.99
2019-04-03T04:36:33.678Z,49.10
2019-04-03T04:40:38.065Z,49.29
2019-04-03T04:44:42.529Z,49.36
2019-04-03T04:48:47.114Z,49.86
2019-04-03T04:52:51.520Z,50.19
2019-04-03T04:56:55.751Z,49.98
2019-04-03T05:00:59.989Z,50.25
2019-04-03T05:05:07.736Z,50.20
2019-04-03T05:09:11.115Z,50.52
2019-04-03T05:13:15.951Z,50.27
2019-04-03T05:17:20.892Z,50.44
2019-04-03T05:21:25.992Z,50.43
2019-04-03T05:25:30.477Z,50.70
2019-04-03T05:29:35.357Z,50.43
2019-04-03T05:33:42.185Z,50.49
2019-04-03T05:37:45.799Z,50.32
2019-04-03T05:41:50.132Z,50.27
2019-04-03T05:45:55.432Z,50.22
2019-04-03T05:50:00.104Z,50.04
2019-04-03T05:54:05.960Z,50.25
2019-04-03T05:58:10.649Z,49.98
2019-04-03T06:02:19.781Z,50.05
2019-04-03T06:06:20.999Z,50.29
2019-04-03T06:10:27.672Z,50.02
2019-04-03T06:14:31.194Z,50.00
2019-04-03T06:18:35.514Z,50.03
2019-04-03T06:22:39.927Z,49.75
2019-04-03T06:26:45.081Z,49.55
2019-04-03T06:30:49.451Z,49.40
2019-04-03T06:34:53.580Z,49.36
2019-04-03T06:38:57.872Z,49.21
2019-04-03T06:43:02.102Z,48.89
2019-04-03T06:47:06.330Z,48.54
2019-04-03T06:51:10.554Z,48.72
2019-04-03T06:55:14.931Z,48.61
2019-04-03T06:59:19.923Z,48.29
2019-04-03T07:03:24.139Z,48.23
2019-04-03T07:07:33.963Z,48.00
2019-04-03T07:11:34.335Z,47.57
2019-04-03T07:15:38.535Z,47.21
2019-04-03T07:19:42.764Z,47.37
2019-04-03T07:23:46.986Z,47.23
2019-04-03T07:27:51.800Z,47.31
2019-04-03T07:31:56.039Z,46.84
2019-04-03T07:36:00.566Z,46.34
2019-04-03T07:40:06.221Z,46.21
2019-04-03T07:44:10.415Z,45.60
2019-04-03T07:48:14.637Z,45.60
2019-04-03T07:52:18.877Z,45.91
2019-04-03T07:56:25.598Z,45.42
2019-04-03T08:00:29.184Z,45.49
2019-04-03T08:04:33.371Z,45.13
2019-04-03T08:08:38.164Z,44.93
2019-04-03T08:12:42.455Z,44.93
2019-04-03T08:16:48.177Z,44.56
2019-04-03T08:20:52.684Z,44.26
2019-04-03T08:24:56.898Z,44.34
2019-04-03T08:29:02.252Z,44.23
2019-04-03T08:33:15.896Z,44.51
2019-04-03T08:37:12.728Z,44.03
2019-04-03T08:41:16.917Z,43.62
2019-04-03T08:45:22.174Z,43.79
2019-04-03T08:49:26.714Z,43.51
2019-04-03T08:53:30.987Z,43.04
2019-04-03T08:57:35.328Z,43.24
2019-04-03T09:01:39.522Z,43.08
2019-04-03T09:05:43.735Z,42.79
2019-04-03T09:09:47.965Z,42.77
2019-04-03T09:13:52.711Z,42.67
2019-04-03T09:17:58.413Z,42.71
2019-04-03T09:22:02.995Z,42.77
2019-04-03T09:26:07.709Z,42.38
2019-04-03T09:30:15.481Z,42.27
2019-04-03T09:34:20.384Z,42.46
2019-04-03T09:38:24.699Z,42.70
2019-04-03T09:42:29.244Z,42.77
2019-04-03T09:46:33.451Z,41.92
2019-04-03T09:50:37.869Z,41.88
2019-04-03T09:54:42.196Z,41.73
2019-04-03T09:58:46.425Z,41.13
2019-04-03T10:02:51.507Z,41.21
2019-04-03T10:06:56.261Z,41.04
2019-04-03T10:11:00.557Z,41.26
2019-04-03T10:15:06.006Z,40.87
2019-04-03T10:19:10.961Z,40.68
2019-04-03T10:23:16.206Z,40.42
2019-04-03T10:27:20.441Z,40.47
2019-04-03T10:31:24.906Z,40.75
2019-04-03T10:35:29.171Z,40.22
2019-04-03T10:39:33.413Z,40.14
2019-04-03T10:43:37.745Z,40.08
2019-04-03T10:47:44.161Z,39.93
2019-04-03T10:51:48.328Z,40.07
2019-04-03T10:55:52.616Z,40.32
2019-04-03T10:59:56.815Z,39.27
2019-04-03T11:04:01.550Z,39.24
2019-04-03T11:08:05.792Z,39.08
2019-04-03T11:12:10.679Z,38.73
2019-04-03T11:16:15.772Z,38.95
2019-04-03T11:20:20.623Z,38.72
2019-04-03T11:24:24.886Z,38.61
2019-04-03T11:28:29.582Z,38.51
2019-04-03T11:32:34.056Z,38.75
2019-04-03T11:36:38.255Z,38.55
2019-04-03T11:40:42.411Z,38.34
2019-04-03T11:44:46.935Z,38.15
2019-04-03T11:48:51.259Z,37.74
2019-04-03T11:52:55.531Z,38.26
2019-04-03T11:56:59.902Z,38.07
2019-04-03T12:01:04.439Z,37.78
2019-04-03T12:05:08.891Z,37.51
2019-04-03T12:09:13.138Z,37.29
2019-04-03T12:13:19.457Z,37.17
2019-04-03T12:17:23.358Z,37.28
2019-04-03T12:21:28.002Z,37.23
2019-04-03T12:25:34.182Z,37.16
2019-04-03T12:29:38.655Z,37.33
2019-04-03T12:33:53.145Z,37.43
2019-04-03T12:37:50.120Z,37.24
2019-04-03T12:41:55.626Z,37.45
2019-04-03T12:46:02.400Z,37.31
2019-04-03T12:50:07.745Z,36.99
2019-04-03T12:54:13.390Z,37.13
2019-04-03T12:58:17.945Z,37.22
2019-04-03T13:02:22.446Z,36.99
2019-04-03T13:06:27.022Z,36.73
2019-04-03T13:10:40.996Z,36.92
2019-04-03T13:14:37.302Z,37.11
2019-04-03T13:18:42.023Z,36.65
2019-04-03T13:22:46.324Z,37.01
2019-04-03T13:26:50.565Z,36.73
2019-04-03T13:30:54.770Z,36.74
2019-04-03T13:34:59.476Z,36.87
2019-04-03T13:39:06.466Z,36.99
2019-04-03T13:43:11.063Z,36.91
2019-04-03T13:47:15.268Z,36.97
2019-04-03T13:51:19.953Z,36.90
2019-04-03T13:55:24.398Z,36.47
2019-04-03T13:59:28.656Z,36.45
2019-04-03T14:03:33.078Z,36.25
2019-04-03T14:07:40.522Z,36.53
2019-04-03T14:11:43.430Z,36.38
2019-04-03T14:15:48.152Z,36.40
2019-04-03T14:19:52.918Z,36.20
2019-04-03T14:23:57.286Z,36.30
2019-04-03T14:28:03.201Z,36.37
2019-04-03T14:32:07.603Z,36.13
2019-04-03T14:36:11.823Z,36.37
2019-04-03T14:40:16.068Z,36.17
2019-04-03T14:44:20.561Z,36.32
2019-04-03T14:48:26.310Z,36.59
2019-04-03T14:52:30.856Z,36.34
2019-04-03T14:56:35.184Z,36.23
2019-04-03T15:00:39.434Z,36.30
2019-04-03T15:04:43.622Z,36.30
2019-04-03T15:08:48.034Z,36.26
2019-04-03T15:12:52.449Z,36.33
2019-04-03T15:16:56.647Z,36.58
2019-04-03T15:21:01.041Z,36.55
2019-04-03T15:25:06.437Z,36.43
2019-04-03T15:29:10.738Z,36.79
2019-04-03T15:33:15.333Z,36.64
2019-04-03T15:37:19.790Z,36.85
2019-04-03T15:41:24.082Z,36.97
2019-04-03T15:45:28.780Z,37.22
2019-04-03T15:49:33.054Z,37.26
2019-04-03T15:53:37.280Z,37.26
2019-04-03T15:57:41.547Z,37.35
2019-04-03T16:01:45.976Z,37.32
2019-04-03T16:05:50.187Z,37.21
2019-04-03T16:09:54.772Z,37.37
2019-04-03T16:13:59.171Z,37.40
2019-04-03T16:18:12.733Z,37.64
2019-04-03T16:22:17.441Z,37.74
2019-04-03T16:26:24.300Z,37.80
2019-04-03T16:30:27.589Z,37.93
2019-04-03T16:34:32.413Z,38.22
2019-04-03T16:38:37.100Z,38.47
2019-04-03T16:42:41.658Z,38.92
2019-04-03T16:46:46.271Z,39.20
2019-04-03T16:50:50.590Z,39.75
2019-04-03T16:54:54.846Z,39.68
2019-04-03T16:59:00.642Z,39.59
2019-04-03T17:03:05.561Z,39.32
2019-04-03T17:07:10.242Z,38.98
2019-04-03T17:11:14.610Z,38.54
2019-04-03T17:15:19.349Z,38.50
2019-04-03T17:19:23.974Z,38.31
2019-04-03T17:23:28.208Z,37.63
2019-04-03T17:27:32.406Z,37.25
2019-04-03T17:31:36.670Z,36.89
2019-04-03T17:35:41.310Z,36.93
2019-04-03T17:39:45.612Z,37.14
2019-04-03T17:43:49.922Z,37.35
2019-04-03T17:47:54.166Z,37.34
2019-04-03T17:51:58.750Z,37.28
2019-04-03T17:56:03.195Z,37.58
2019-04-03T18:00:10.134Z,37.67
2019-04-03T18:04:14.375Z,37.87
2019-04-03T18:08:18.679Z,37.99
2019-04-03T18:12:22.891Z,38.25
2019-04-03T18:16:29.510Z,38.44
2019-04-03T18:20:33.117Z,38.75
2019-04-03T18:24:37.418Z,38.56
2019-04-03T18:28:41.648Z,38.71
2019-04-03T18:32:46.647Z,38.67
2019-04-03T18:36:51.203Z,38.83
2019-04-03T18:40:55.581Z,38.87
2019-04-03T18:44:59.802Z,38.89
2019-04-03T18:49:04.052Z,38.98
2019-04-03T18:53:09.751Z,39.06
2019-04-03T18:57:16.812Z,39.18
2019-04-03T19:01:20.261Z,39.36
2019-04-03T19:05:24.667Z,39.51
2019-04-03T19:09:28.913Z,39.60
2019-04-03T19:13:33.213Z,40.03
2019-04-03T19:17:37.408Z,40.22
2019-04-03T19:21:42.087Z,40.31
2019-04-03T19:25:46.852Z,40.55
2019-04-03T19:29:51.052Z,40.69
2019-04-03T19:33:55.287Z,40.87
2019-04-03T19:37:59.763Z,41.38
2019-04-03T19:42:04.157Z,41.42
2019-04-03T19:46:08.383Z,41.67
2019-04-03T19:50:12.812Z,41.74
2019-04-03T19:54:17.255Z,42.29
2019-04-03T19:58:21.501Z,42.26
2019-04-03T20:02:25.751Z,42.34
2019-04-03T20:06:29.950Z,42.59
2019-04-03T20:10:34.449Z,42.74
2019-04-03T20:14:38.647Z,43.38
2019-04-03T20:18:43.015Z,43.12
2019-04-03T20:22:47.264Z,43.89
2019-04-03T20:26:51.489Z,43.92
2019-04-03T20:30:55.726Z,44.29
2019-04-03T20:34:59.947Z,44.50
2019-04-03T20:39:05.971Z,45.27
2019-04-03T20:43:11.862Z,45.56
2019-04-03T20:47:16.220Z,45.95
2019-04-03T20:51:20.590Z,46.29
2019-04-03T20:55:25.562Z,46.46
2019-04-03T20:59:30.199Z,46.81
2019-04-03T21:03:34.710Z,48.10
2019-04-03T21:07:38.969Z,47.75
2019-04-03T21:11:43.135Z,47.47
2019-04-03T21:15:47.478Z,47.97
2019-04-03T21:19:52.330Z,48.06
2019-04-03T21:23:56.928Z,48.27
2019-04-03T21:28:01.161Z,48.22
2019-04-03T21:32:05.350Z,48.64
2019-04-03T21:36:09.588Z,48.54
2019-04-03T21:40:15.188Z,48.58
2019-04-03T21:44:19.885Z,49.00
2019-04-03T21:48:24.110Z,49.45
2019-04-03T21:52:28.343Z,49.57
2019-04-03T21:56:33.417Z,49.98
2019-04-03T22:01:16.127Z,49.56
2019-04-03T22:05:20.329Z,50.00
2019-04-03T22:09:24.663Z,49.99
2019-04-03T22:13:29.024Z,49.83
2019-04-03T22:17:34.233Z,50.09
2019-04-03T22:21:38.765Z,50.20
2019-04-03T22:25:43.006Z,50.38
2019-04-03T22:29:47.218Z,50.77
2019-04-03T22:33:51.489Z,50.98
2019-04-03T22:37:55.719Z,51.34
2019-04-03T22:41:59.936Z,51.02
2019-04-03T22:46:04.196Z,51.29
2019-04-03T22:50:08.922Z,51.21
2019-04-03T22:54:13.320Z,51.47
2019-04-03T22:58:19.025Z,51.47
2019-04-03T23:02:23.708Z,51.48
2019-04-03T23:06:27.983Z,51.63
2019-04-03T23:10:36.111Z,51.87
2019-04-03T23:14:40.380Z,51.65
2019-04-03T23:18:46.600Z,51.80
2019-04-03T23:22:51.068Z,51.88
2019-04-03T23:26:55.361Z,52.38
2019-04-03T23:30:59.580Z,52.22
2019-04-03T23:35:03.851Z,52.04
2019-04-03T23:39:09.547Z,52.49
2019-04-03T23:43:13.840Z,52.41
2019-04-03T23:47:18.137Z,52.56
2019-04-03T23:51:23.479Z,52.75
2019-04-03T23:55:28.425Z,54.09
2019-04-03T23:59:32.702Z,52.91
